createdAt,value
2022-09-07T00:02:12.739Z,19.22
2022-09-07T00:04:39.358Z,19.02
2022-09-07T00:07:05.978Z,19.05
2022-09-07T00:09:32.547Z,18.98
2022-09-07T00:11:59.172Z,19.01
2022-09-07T00:14:25.852Z,19.01
2022-09-07T00:16:52.377Z,19.05
2022-09-07T00:19:18.994Z,19.10
2022-09-07T00:21:45.735Z,19.13
2022-09-07T00:24:12.358Z,19.17
2022-09-07T00:26:38.949Z,19.09
2022-09-07T00:29:07.340Z,19.13
2022-09-07T00:31:34.078Z,19.21
2022-09-07T00:34:01.561Z,19.13
2022-09-07T00:36:28.796Z,19.25
2022-09-07T00:38:55.555Z,19.24
2022-09-07T00:41:23.161Z,19.41
2022-09-07T00:44:20.170Z,19.28
2022-09-07T00:46:47.027Z,19.11
2022-09-07T00:49:19.319Z,19.22
2022-09-07T00:51:54.230Z,19.33
2022-09-07T00:54:28.782Z,19.11
2022-09-07T00:56:55.929Z,19.18
2022-09-07T00:59:30.845Z,19.15
2022-09-07T01:01:57.825Z,19.26
2022-09-07T01:04:25.022Z,19.40
2022-09-07T01:06:53.887Z,19.32
2022-09-07T01:09:23.201Z,19.61
2022-09-07T01:11:51.424Z,19.61
2022-09-07T01:14:32.197Z,19.54
2022-09-07T01:17:14.111Z,19.64
2022-09-07T01:20:31.132Z,19.53
2022-09-07T01:23:44.277Z,19.74
2022-09-07T01:26:43.777Z,19.73
2022-09-07T01:29:32.951Z,19.82
2022-09-07T01:32:22.302Z,19.78
2022-09-07T01:34:53.424Z,19.69
2022-09-07T01:37:30.925Z,19.50
2022-09-07T01:40:07.846Z,19.59
2022-09-07T01:42:44.790Z,19.49
2022-09-07T01:45:13.706Z,19.39
2022-09-07T01:47:45.366Z,19.20
2022-09-07T01:50:21.806Z,19.28
2022-09-07T01:52:58.517Z,19.15
2022-09-07T01:55:45.077Z,19.22
2022-09-07T01:58:30.192Z,19.18
2022-09-07T02:01:03.537Z,19.09
2022-09-07T02:03:38.946Z,19.02
2022-09-07T02:06:14.385Z,18.99
2022-09-07T02:08:46.605Z,19.03
2022-09-07T02:11:36.474Z,18.97
2022-09-07T02:14:09.507Z,18.99
2022-09-07T02:16:39.422Z,19.01
2022-09-07T02:19:13.362Z,19.02
2022-09-07T02:21:45.207Z,18.99
2022-09-07T02:24:18.482Z,19.10
2022-09-07T02:26:49.684Z,19.06
2022-09-07T02:29:16.328Z,19.04
2022-09-07T02:31:43.091Z,19.08
2022-09-07T02:34:10.339Z,19.09
2022-09-07T02:36:44.394Z,19.11
2022-09-07T02:39:10.918Z,19.07
2022-09-07T02:41:40.211Z,19.11
2022-09-07T02:44:17.484Z,19.14
2022-09-07T02:47:15.145Z,19.27
2022-09-07T02:50:10.696Z,19.30
2022-09-07T02:53:02.460Z,19.32
2022-09-07T02:55:45.922Z,19.33
2022-09-07T02:58:22.629Z,19.41
2022-09-07T03:01:29.058Z,19.27
2022-09-07T03:04:11.052Z,19.13
2022-09-07T03:06:52.150Z,19.00
2022-09-07T03:09:27.987Z,18.98
2022-09-07T03:11:55.033Z,18.93
2022-09-07T03:14:24.653Z,18.76
2022-09-07T03:16:55.486Z,18.72
2022-09-07T03:19:22.067Z,18.64
2022-09-07T03:21:48.683Z,18.86
2022-09-07T03:24:15.175Z,18.95
2022-09-07T03:26:44.786Z,19.08
2022-09-07T03:29:11.291Z,19.09
2022-09-07T03:31:37.807Z,19.17
2022-09-07T03:34:05.067Z,19.18
2022-09-07T03:36:31.897Z,19.29
2022-09-07T03:38:59.434Z,19.27
2022-09-07T03:41:27.082Z,19.34
2022-09-07T03:43:53.643Z,19.35
2022-09-07T03:46:20.700Z,19.27
2022-09-07T03:48:48.682Z,19.35
2022-09-07T03:51:17.118Z,19.17
2022-09-07T03:53:46.129Z,19.02
2022-09-07T03:56:16.228Z,18.96
2022-09-07T03:58:42.837Z,18.88
2022-09-07T04:01:16.128Z,19.03
2022-09-07T04:03:43.237Z,19.08
2022-09-07T04:06:10.032Z,19.05
2022-09-07T04:08:38.490Z,19.01
2022-09-07T04:11:07.407Z,19.02
2022-09-07T04:13:36.111Z,18.96
2022-09-07T04:16:20.467Z,19.05
2022-09-07T04:18:47.704Z,19.04
2022-09-07T04:21:14.247Z,19.02
2022-09-07T04:23:42.666Z,19.03
2022-09-07T04:26:29.794Z,19.01
2022-09-07T04:28:56.764Z,18.94
2022-09-07T04:31:23.962Z,19.05
2022-09-07T04:33:51.781Z,19.05
2022-09-07T04:36:20.197Z,19.07
2022-09-07T04:38:47.192Z,19.02
2022-09-07T04:41:19.603Z,18.99
2022-09-07T04:43:46.945Z,19.02
2022-09-07T04:46:22.771Z,18.94
2022-09-07T04:48:50.810Z,18.81
2022-09-07T04:51:18.349Z,18.89
2022-09-07T04:53:48.540Z,18.95
2022-09-07T04:56:17.115Z,18.92
2022-09-07T04:58:44.151Z,18.90
2022-09-07T05:01:13.238Z,18.95
2022-09-07T05:03:40.140Z,18.97
2022-09-07T05:06:08.080Z,18.97
2022-09-07T05:08:43.432Z,19.01
2022-09-07T05:11:11.823Z,18.97
2022-09-07T05:13:38.646Z,18.93
2022-09-07T05:16:19.401Z,18.85
2022-09-07T05:18:56.873Z,18.86
2022-09-07T05:21:26.447Z,18.87
2022-09-07T05:23:54.315Z,18.80
2022-09-07T05:26:23.161Z,18.73
2022-09-07T05:28:50.395Z,18.76
2022-09-07T05:31:19.764Z,18.76
2022-09-07T05:36:35.660Z,18.67
2022-09-07T05:39:02.161Z,18.71
2022-09-07T05:41:28.990Z,18.77
2022-09-07T05:46:42.508Z,18.84
2022-09-07T05:49:09.229Z,18.81
2022-09-07T05:51:37.185Z,18.72
2022-09-07T05:54:04.134Z,18.77
2022-09-07T05:56:36.071Z,18.72
2022-09-07T05:59:03.228Z,18.73
2022-09-07T06:01:29.833Z,18.69
2022-09-07T06:03:56.592Z,18.76
2022-09-07T06:06:23.856Z,18.72
2022-09-07T06:08:52.743Z,18.73
2022-09-07T06:11:22.067Z,18.77
2022-09-07T06:13:48.699Z,18.56
2022-09-07T06:16:16.840Z,18.75
2022-09-07T06:18:46.263Z,18.65
2022-09-07T06:21:16.108Z,18.66
2022-09-07T06:23:43.804Z,18.71
2022-09-07T06:26:11.420Z,18.63
2022-09-07T06:28:40.402Z,18.69
2022-09-07T06:31:13.528Z,18.74
2022-09-07T06:33:41.823Z,18.80
2022-09-07T06:36:17.165Z,18.71
2022-09-07T06:38:44.558Z,18.77
2022-09-07T06:44:02.755Z,18.81
2022-09-07T06:49:15.903Z,18.86
2022-09-07T06:51:43.446Z,18.93
2022-09-07T06:56:56.587Z,19.08
2022-09-07T06:59:23.133Z,19.03
2022-09-07T07:01:49.748Z,19.08
2022-09-07T07:04:16.357Z,19.11
2022-09-07T07:06:42.837Z,19.15
2022-09-07T07:09:12.941Z,19.24
2022-09-07T07:11:39.592Z,19.20
2022-09-07T07:14:06.137Z,19.21
2022-09-07T07:16:32.994Z,19.22
2022-09-07T07:18:59.671Z,19.19
2022-09-07T07:21:27.271Z,19.25
2022-09-07T07:23:57.941Z,19.29
2022-09-07T07:26:26.854Z,19.29
2022-09-07T07:31:26.837Z,19.75
2022-09-07T07:33:54.030Z,19.92
2022-09-07T07:36:22.893Z,19.89
2022-09-07T07:44:13.329Z,20.12
2022-09-07T07:46:40.132Z,20.19
2022-09-07T07:49:06.639Z,20.19
2022-09-07T07:52:49.976Z,20.30
2022-09-07T07:54:19.697Z,20.37
2022-09-07T07:56:46.579Z,20.35
2022-09-07T07:59:15.813Z,20.36
2022-09-07T08:01:43.969Z,20.40
2022-09-07T08:04:10.532Z,20.49
2022-09-07T08:06:37.772Z,20.59
2022-09-07T08:09:04.581Z,20.66
2022-09-07T08:11:31.596Z,20.85
2022-09-07T08:14:00.343Z,20.86
2022-09-07T08:16:27.090Z,20.89
2022-09-07T08:18:53.798Z,21.03
2022-09-07T08:21:20.338Z,20.98
2022-09-07T08:23:46.959Z,21.15
2022-09-07T08:26:13.623Z,20.93
2022-09-07T08:28:41.977Z,21.02
2022-09-07T08:31:11.367Z,21.06
2022-09-07T08:33:38.708Z,21.10
2022-09-07T08:36:08.917Z,21.07
2022-09-07T08:38:36.580Z,21.30
2022-09-07T08:41:15.985Z,21.57
2022-09-07T08:43:52.422Z,21.65
2022-09-07T08:46:52.603Z,21.32
2022-09-07T08:49:34.114Z,21.26
2022-09-07T08:52:21.447Z,21.40
2022-09-07T08:55:00.719Z,21.55
2022-09-07T08:57:33.170Z,21.71
2022-09-07T09:00:10.469Z,21.74
2022-09-07T09:02:43.456Z,21.88
2022-09-07T09:05:40.343Z,21.97
2022-09-07T09:08:22.783Z,21.95
2022-09-07T09:10:55.544Z,22.02
2022-09-07T09:13:44.142Z,22.11
2022-09-07T09:16:22.572Z,22.19
2022-09-07T09:19:03.056Z,22.29
2022-09-07T09:21:29.745Z,22.36
2022-09-07T09:24:01.979Z,22.46
2022-09-07T09:26:31.431Z,22.42
2022-09-07T09:28:58.017Z,22.50
2022-09-07T09:31:34.099Z,22.57
2022-09-07T09:34:17.763Z,22.72
2022-09-07T09:36:46.107Z,22.78
2022-09-07T09:39:33.733Z,22.73
2022-09-07T09:42:12.169Z,23.06
2022-09-07T09:44:39.443Z,23.15
2022-09-07T09:49:53.835Z,22.99
2022-09-07T09:52:29.113Z,23.08
2022-09-07T09:55:03.365Z,23.18
2022-09-07T10:03:59.740Z,23.46
2022-09-07T10:06:28.160Z,23.44
2022-09-07T10:09:01.804Z,23.54
2022-09-07T10:14:43.474Z,23.84
2022-09-07T10:17:31.770Z,23.95
2022-09-07T10:20:15.974Z,24.00
2022-09-07T10:22:50.894Z,23.91
2022-09-07T10:25:32.737Z,24.05
2022-09-07T10:28:14.142Z,24.26
2022-09-07T10:31:03.795Z,24.33
2022-09-07T10:36:59.038Z,24.48
2022-09-07T10:39:31.419Z,24.59
2022-09-07T10:42:17.084Z,24.62
2022-09-07T10:45:19.311Z,24.68
2022-09-07T10:48:14.035Z,25.00
2022-09-07T10:51:32.195Z,25.18
2022-09-07T10:54:32.236Z,25.15
2022-09-07T10:57:15.506Z,25.31
2022-09-07T11:00:09.373Z,25.41
2022-09-07T11:06:12.367Z,25.96
2022-09-07T11:12:04.265Z,25.84
2022-09-07T11:14:50.891Z,25.91
2022-09-07T11:17:21.853Z,25.77
2022-09-07T11:20:18.447Z,25.91
2022-09-07T11:22:55.160Z,26.00
2022-09-07T11:25:30.899Z,26.04
2022-09-07T11:28:14.653Z,25.80
2022-09-07T11:30:47.774Z,25.78
2022-09-07T11:33:23.681Z,25.71
2022-09-07T11:36:01.036Z,25.74
2022-09-07T11:38:39.310Z,25.75
2022-09-07T11:41:23.942Z,25.87
2022-09-07T11:44:13.386Z,26.12
2022-09-07T11:46:52.465Z,26.18
2022-09-07T11:49:24.735Z,26.04
2022-09-07T11:52:40.871Z,25.82
2022-09-07T11:55:30.177Z,25.76
2022-09-07T11:58:25.781Z,25.97
2022-09-07T12:01:37.091Z,25.85
2022-09-07T12:04:29.627Z,25.58
2022-09-07T12:07:21.189Z,25.69
2022-09-07T12:10:18.203Z,25.83
2022-09-07T12:13:04.941Z,26.04
2022-09-07T12:15:56.968Z,26.18
2022-09-07T12:19:11.169Z,25.89
2022-09-07T12:21:40.636Z,25.99
2022-09-07T12:24:45.282Z,26.46
2022-09-07T12:27:20.992Z,26.91
2022-09-07T12:30:02.691Z,27.20
2022-09-07T12:32:56.188Z,27.15
2022-09-07T12:35:33.346Z,27.29
2022-09-07T12:38:01.445Z,27.43
2022-09-07T12:40:31.997Z,27.18
2022-09-07T12:43:13.956Z,26.78
2022-09-07T12:45:40.446Z,26.61
2022-09-07T12:48:23.706Z,26.46
2022-09-07T12:50:55.860Z,26.83
2022-09-07T12:53:46.939Z,26.99
2022-09-07T12:56:17.171Z,27.09
2022-09-07T12:59:02.967Z,26.98
2022-09-07T13:01:50.372Z,27.10
2022-09-07T13:04:53.024Z,27.23
2022-09-07T13:07:41.306Z,27.01
2022-09-07T13:10:26.415Z,26.78
2022-09-07T13:12:55.247Z,26.88
2022-09-07T13:15:35.760Z,26.88
2022-09-07T13:18:03.489Z,26.96
2022-09-07T13:20:34.820Z,27.10
2022-09-07T13:23:20.792Z,27.41
2022-09-07T13:25:49.989Z,27.70
2022-09-07T13:28:29.085Z,27.90
2022-09-07T13:31:14.263Z,27.86
2022-09-07T13:33:54.395Z,28.10
2022-09-07T13:36:25.409Z,28.07
2022-09-07T13:38:54.375Z,28.16
2022-09-07T13:41:42.056Z,28.26
2022-09-07T13:44:23.597Z,28.34
2022-09-07T13:47:06.258Z,28.35
2022-09-07T13:49:46.042Z,28.38
2022-09-07T13:53:00.885Z,28.47
2022-09-07T13:55:45.507Z,28.24
2022-09-07T13:58:29.218Z,28.29
2022-09-07T14:01:23.524Z,28.26
2022-09-07T14:03:59.812Z,28.39
2022-09-07T14:06:27.817Z,28.34
2022-09-07T14:09:07.069Z,28.47
2022-09-07T14:11:41.128Z,28.54
2022-09-07T14:14:24.103Z,28.39
2022-09-07T14:17:01.644Z,28.24
2022-09-07T14:19:40.945Z,28.18
2022-09-07T14:22:23.881Z,28.27
2022-09-07T14:24:53.903Z,28.34
2022-09-07T14:27:37.589Z,28.45
2022-09-07T14:30:19.198Z,28.61
2022-09-07T14:32:54.613Z,28.69
2022-09-07T14:35:41.828Z,28.85
2022-09-07T14:39:03.931Z,28.99
2022-09-07T14:41:11.784Z,28.79
2022-09-07T14:43:50.998Z,28.67
2022-09-07T14:46:23.376Z,28.52
2022-09-07T14:48:53.392Z,28.73
2022-09-07T14:51:35.185Z,28.64
2022-09-07T14:54:07.884Z,28.02
2022-09-07T14:56:40.778Z,27.81
2022-09-07T14:59:28.142Z,27.60
2022-09-07T15:02:22.248Z,27.54
2022-09-07T15:05:09.791Z,27.62
2022-09-07T15:07:40.550Z,27.71
2022-09-07T15:10:33.231Z,27.83
2022-09-07T15:13:01.717Z,27.83
2022-09-07T15:15:32.907Z,27.73
2022-09-07T15:18:08.747Z,27.63
2022-09-07T15:20:44.312Z,27.94
2022-09-07T15:23:12.270Z,28.23
2022-09-07T15:25:40.701Z,28.55
2022-09-07T15:28:08.073Z,28.97
2022-09-07T15:30:35.036Z,28.97
2022-09-07T15:33:01.609Z,28.92
2022-09-07T15:35:28.226Z,28.88
2022-09-07T15:38:04.552Z,28.72
2022-09-07T15:40:58.098Z,28.42
2022-09-07T15:43:28.706Z,27.84
2022-09-07T15:45:55.580Z,27.83
2022-09-07T15:48:25.321Z,27.77
2022-09-07T15:51:00.232Z,27.83
2022-09-07T15:56:13.852Z,28.29
2022-09-07T15:58:43.176Z,28.31
2022-09-07T16:03:58.634Z,28.07
2022-09-07T16:06:26.526Z,28.19
2022-09-07T16:08:53.667Z,28.30
2022-09-07T16:11:24.164Z,28.28
2022-09-07T16:14:01.810Z,28.30
2022-09-07T16:19:20.652Z,28.62
2022-09-07T16:21:47.549Z,29.51
2022-09-07T16:24:14.149Z,30.14
2022-09-07T16:26:40.802Z,30.89
2022-09-07T16:29:07.902Z,31.69
2022-09-07T16:31:37.900Z,31.69
2022-09-07T16:34:04.406Z,31.66
2022-09-07T16:36:30.934Z,31.71
2022-09-07T16:38:59.780Z,31.07
2022-09-07T16:41:31.899Z,30.60
2022-09-07T16:43:59.143Z,30.30
2022-09-07T16:46:28.022Z,30.05
2022-09-07T16:48:55.384Z,29.75
2022-09-07T16:51:23.658Z,29.63
2022-09-07T16:53:52.770Z,29.42
2022-09-07T16:56:21.854Z,29.07
2022-09-07T16:58:51.429Z,28.72
2022-09-07T17:01:21.440Z,28.61
2022-09-07T17:03:49.667Z,28.38
2022-09-07T17:06:18.125Z,28.15
2022-09-07T17:08:45.078Z,28.23
2022-09-07T17:11:12.753Z,28.23
2022-09-07T17:13:41.067Z,28.27
2022-09-07T17:16:19.702Z,28.29
2022-09-07T17:21:35.885Z,27.84
2022-09-07T17:24:04.485Z,27.62
2022-09-07T17:26:31.970Z,27.56
2022-09-07T17:29:00.818Z,27.75
2022-09-07T17:34:21.789Z,27.48
2022-09-07T17:36:48.579Z,27.13
2022-09-07T17:39:17.701Z,27.06
2022-09-07T17:41:45.394Z,26.94
2022-09-07T17:44:12.037Z,26.67
2022-09-07T17:46:38.792Z,26.41
2022-09-07T17:49:08.135Z,26.13
2022-09-07T17:51:36.223Z,26.04
2022-09-07T17:54:12.954Z,25.93
2022-09-07T17:56:41.074Z,25.55
2022-09-07T18:01:55.199Z,25.12
2022-09-07T18:04:21.788Z,24.93
2022-09-07T18:06:48.560Z,24.92
2022-09-07T18:09:15.906Z,24.93
2022-09-07T18:11:46.873Z,24.91
2022-09-07T18:14:15.241Z,24.87
2022-09-07T18:16:44.092Z,24.84
2022-09-07T18:19:12.006Z,24.69
2022-09-07T18:21:41.194Z,24.53
2022-09-07T18:24:20.875Z,24.68
2022-09-07T18:26:51.176Z,24.56
2022-09-07T18:29:33.818Z,24.59
2022-09-07T18:32:03.045Z,24.49
2022-09-07T18:34:31.697Z,24.58
2022-09-07T18:36:59.282Z,24.53
2022-09-07T18:39:26.435Z,24.20
2022-09-07T18:41:54.750Z,24.09
2022-09-07T18:47:08.802Z,23.91
2022-09-07T18:49:35.613Z,23.91
2022-09-07T18:54:50.270Z,24.02
2022-09-07T18:57:16.865Z,24.06
2022-09-07T18:59:43.477Z,23.92
2022-09-07T19:02:10.742Z,23.68
2022-09-07T19:07:29.400Z,23.46
2022-09-07T19:09:56.893Z,23.52
2022-09-07T19:12:24.418Z,23.53
2022-09-07T19:14:51.393Z,23.60
2022-09-07T19:17:17.945Z,23.63
2022-09-07T19:19:44.597Z,23.42
2022-09-07T19:22:11.177Z,23.28
2022-09-07T19:24:37.684Z,23.18
2022-09-07T19:27:04.273Z,23.22
2022-09-07T19:29:30.851Z,23.18
2022-09-07T19:32:11.677Z,23.17
2022-09-07T19:34:40.953Z,23.32
2022-09-07T19:37:09.646Z,23.23
2022-09-07T19:39:36.947Z,23.16
2022-09-07T19:42:05.606Z,23.17
2022-09-07T19:44:32.585Z,23.15
2022-09-07T19:47:00.375Z,23.19
2022-09-07T19:49:27.795Z,23.14
2022-09-07T19:51:54.333Z,22.98
2022-09-07T19:54:20.819Z,22.90
2022-09-07T19:56:47.742Z,22.88
2022-09-07T19:59:14.531Z,22.90
2022-09-07T20:01:46.097Z,22.93
2022-09-07T20:04:19.507Z,22.99
2022-09-07T20:06:50.367Z,23.01
2022-09-07T20:09:20.605Z,22.92
2022-09-07T20:11:47.956Z,22.73
2022-09-07T20:14:15.896Z,22.58
2022-09-07T20:16:42.586Z,22.63
2022-09-07T20:19:11.642Z,22.66
2022-09-07T20:21:38.106Z,22.61
2022-09-07T20:24:05.040Z,22.35
2022-09-07T20:26:32.402Z,22.34
2022-09-07T20:29:16.696Z,22.29
2022-09-07T20:31:47.019Z,22.43
2022-09-07T20:34:14.413Z,22.52
2022-09-07T20:36:40.894Z,22.48
2022-09-07T20:39:07.705Z,22.51
2022-09-07T20:41:34.885Z,22.43
2022-09-07T20:44:02.667Z,22.42
2022-09-07T20:46:30.423Z,22.51
2022-09-07T20:48:57.427Z,22.49
2022-09-07T20:51:24.229Z,22.52
2022-09-07T20:53:51.114Z,22.49
2022-09-07T20:56:19.953Z,22.26
2022-09-07T20:58:47.445Z,22.33
2022-09-07T21:01:16.536Z,22.27
2022-09-07T21:03:50.837Z,22.24
2022-09-07T21:06:18.709Z,22.16
2022-09-07T21:08:46.770Z,21.99
2022-09-07T21:11:24.768Z,21.89
2022-09-07T21:14:02.381Z,21.88
2022-09-07T21:16:29.862Z,21.91
2022-09-07T21:18:58.904Z,21.92
2022-09-07T21:21:27.231Z,21.92
2022-09-07T21:23:59.794Z,21.90
2022-09-07T21:26:28.193Z,21.90
2022-09-07T21:29:00.116Z,21.78
2022-09-07T21:31:27.807Z,21.72
2022-09-07T21:33:55.620Z,21.55
2022-09-07T21:36:22.194Z,21.48
2022-09-07T21:38:48.906Z,21.46
2022-09-07T21:41:17.096Z,21.45
2022-09-07T21:43:43.643Z,21.42
2022-09-07T21:46:12.929Z,21.37
2022-09-07T21:48:39.794Z,21.43
2022-09-07T21:51:06.780Z,21.45
2022-09-07T21:53:34.047Z,21.54
2022-09-07T21:56:03.296Z,21.63
2022-09-07T21:58:30.252Z,21.62
2022-09-07T22:00:57.492Z,21.69
2022-09-07T22:03:25.347Z,21.69
2022-09-07T22:05:52.454Z,21.71
2022-09-07T22:08:19.445Z,21.46
2022-09-07T22:10:46.553Z,21.47
2022-09-07T22:13:13.349Z,21.46
2022-09-07T22:15:41.620Z,21.41
2022-09-07T22:18:11.914Z,21.42
2022-09-07T22:20:38.305Z,21.57
2022-09-07T22:23:05.422Z,21.55
2022-09-07T22:25:32.743Z,21.48
2022-09-07T22:27:59.404Z,21.53
2022-09-07T22:30:26.357Z,21.39
2022-09-07T22:32:53.404Z,21.48
2022-09-07T22:35:20.637Z,21.40
2022-09-07T22:37:47.109Z,21.25
2022-09-07T22:40:14.763Z,21.17
2022-09-07T22:42:41.830Z,21.09
2022-09-07T22:45:09.407Z,21.05
2022-09-07T22:47:35.905Z,21.02
2022-09-07T22:50:02.414Z,20.95
2022-09-07T22:52:29.028Z,20.98
2022-09-07T22:54:55.481Z,21.00
2022-09-07T22:57:22.077Z,21.07
2022-09-07T22:59:48.680Z,20.97
2022-09-07T23:02:15.247Z,20.91
2022-09-07T23:04:41.772Z,20.92
2022-09-07T23:07:08.603Z,20.90
2022-09-07T23:09:35.155Z,21.00
2022-09-07T23:12:01.810Z,21.07
2022-09-07T23:14:28.476Z,20.99
2022-09-07T23:16:55.404Z,20.98
2022-09-07T23:19:21.916Z,20.86
2022-09-07T23:21:48.484Z,20.99
2022-09-07T23:24:17.447Z,20.88
2022-09-07T23:26:44.194Z,20.94
2022-09-07T23:29:12.703Z,20.99
2022-09-07T23:31:40.370Z,20.93
2022-09-07T23:34:07.721Z,20.83
2022-09-07T23:36:34.726Z,20.67
2022-09-07T23:39:01.555Z,20.60
2022-09-07T23:41:28.821Z,20.60
2022-09-07T23:43:55.900Z,20.58
2022-09-07T23:46:23.640Z,20.51
2022-09-07T23:48:50.559Z,20.65
2022-09-07T23:51:22.815Z,20.66
2022-09-07T23:53:50.664Z,20.64
2022-09-07T23:56:17.264Z,20.57
2022-09-07T23:58:44.213Z,20.57
